Time;durP1;ratioP1;P1;durP2;ratioP2;P2;SDS_P1;SDS_P2;PMS_P1;PMS_P2;Temp;Humidity;BMP_temperature;BMP_pressure;BME280_temperature;BME280_humidity;BME280_pressure;Samples;Min_cycle;Max_cycle;Signal;HPM_P1;HPM_P2
2022/03/27 00:01:18;;;;;;;8.93;4.47;;;5.20;99.90;;;;;;5016413;28;20026;-84
2022/03/27 00:03:44;;;;;;;9.38;4.10;;;5.20;99.90;;;;;;5016544;28;20105;-84
2022/03/27 00:06:10;;;;;;;8.68;4.68;;;5.20;99.90;;;;;;5016225;28;20104;-84
2022/03/27 00:08:35;;;;;;;7.45;4.28;;;5.20;99.90;;;;;;5016200;28;20056;-84
2022/03/27 00:13:46;;;;;;;7.70;4.47;;;5.20;99.90;;;;;;5016588;28;20747;-84
2022/03/27 00:16:12;;;;;;;10.55;5.38;;;5.10;99.90;;;;;;5016195;28;20026;-83
2022/03/27 00:18:37;;;;;;;8.93;5.13;;;5.10;99.90;;;;;;5015961;28;20029;-84
2022/03/27 00:21:04;;;;;;;9.60;5.13;;;5.10;99.90;;;;;;5015946;28;20096;-83
2022/03/27 00:23:30;;;;;;;10.05;5.75;;;5.00;99.90;;;;;;5014854;28;20036;-83
2022/03/27 00:25:56;;;;;;;11.15;6.35;;;5.00;99.90;;;;;;5015794;28;20385;-83
2022/03/27 00:28:22;;;;;;;11.10;6.35;;;5.00;99.90;;;;;;5016017;28;20026;-83
2022/03/27 00:30:47;;;;;;;11.43;6.53;;;5.00;99.90;;;;;;5015626;28;20018;-84
2022/03/27 00:33:13;;;;;;;12.05;6.55;;;5.00;99.90;;;;;;5015563;28;20390;-84
2022/03/27 00:35:39;;;;;;;11.43;7.10;;;4.90;99.90;;;;;;5015657;28;20072;-84
2022/03/27 00:38:05;;;;;;;13.18;6.97;;;4.90;99.90;;;;;;5015615;28;20110;-84
2022/03/27 00:40:30;;;;;;;9.98;6.43;;;4.90;99.90;;;;;;5015887;28;20022;-83
2022/03/27 00:42:56;;;;;;;12.52;7.07;;;4.80;99.90;;;;;;5015822;28;20457;-83
2022/03/27 00:45:21;;;;;;;11.60;6.53;;;4.70;99.90;;;;;;5015188;28;20053;-83
2022/03/27 00:47:47;;;;;;;13.20;6.72;;;4.70;99.90;;;;;;5015331;28;20049;-83
2022/03/27 00:50:12;;;;;;;10.95;6.13;;;4.80;99.90;;;;;;5015409;28;20026;-84
2022/03/27 00:52:38;;;;;;;12.77;7.00;;;4.80;99.90;;;;;;5015380;28;20092;-84
2022/03/27 00:55:04;;;;;;;9.88;4.70;;;4.90;99.90;;;;;;5015221;28;20025;-83
2022/03/27 00:57:30;;;;;;;9.60;5.45;;;4.90;99.90;;;;;;5029112;28;20083;-83
2022/03/27 00:59:56;;;;;;;12.02;5.95;;;5.10;99.90;;;;;;5017424;28;20026;-84
2022/03/27 01:02:23;;;;;;;9.73;5.25;;;5.10;99.90;;;;;;5013918;28;20457;-83
2022/03/27 01:04:53;;;;;;;7.90;4.57;;;5.20;99.90;;;;;;5015038;28;20088;-83
2022/03/27 01:07:19;;;;;;;7.97;4.35;;;5.20;99.90;;;;;;5015148;28;20037;-83
2022/03/27 01:09:48;;;;;;;7.35;4.07;;;5.20;99.90;;;;;;5015210;28;20030;-83
2022/03/27 01:12:21;;;;;;;7.20;2.95;;;5.30;99.90;;;;;;5015111;28;20072;-83
2022/03/27 01:14:47;;;;;;;5.63;3.20;;;5.40;99.90;;;;;;5013912;28;20030;-83
2022/03/27 01:17:18;;;;;;;6.88;3.75;;;5.50;99.90;;;;;;5015116;28;20026;-83
2022/03/27 01:19:47;;;;;;;7.20;3.50;;;5.50;99.90;;;;;;5014902;28;20018;-83
2022/03/27 01:22:13;;;;;;;8.70;4.13;;;5.60;99.90;;;;;;5015091;28;20034;-84
2022/03/27 01:24:39;;;;;;;9.30;3.58;;;5.60;99.90;;;;;;5015052;28;20465;-82
2022/03/27 01:27:05;;;;;;;6.88;3.28;;;5.50;99.90;;;;;;5014664;28;20029;-82
2022/03/27 01:29:31;;;;;;;6.65;3.45;;;5.40;99.90;;;;;;5014940;28;20048;-81
2022/03/27 01:31:57;;;;;;;7.07;3.63;;;5.50;99.90;;;;;;5014757;28;20026;-82
2022/03/27 01:34:24;;;;;;;8.88;3.90;;;5.50;99.90;;;;;;5013273;28;20111;-81
2022/03/27 01:36:50;;;;;;;9.45;3.90;;;5.50;99.90;;;;;;5013384;28;20025;-82
2022/03/27 01:39:16;;;;;;;6.03;3.47;;;5.40;99.90;;;;;;5014654;28;20030;-81
2022/03/27 01:41:43;;;;;;;7.05;3.42;;;5.30;99.90;;;;;;5014480;28;20389;-81
2022/03/27 01:44:14;;;;;;;6.90;3.55;;;5.30;99.90;;;;;;5014062;28;20033;-81
2022/03/27 01:46:42;;;;;;;7.47;3.80;;;5.20;99.90;;;;;;5014462;28;20026;-81
2022/03/27 01:49:10;;;;;;;6.68;3.67;;;5.10;99.90;;;;;;5014354;28;20038;-81
2022/03/27 01:51:38;;;;;;;10.00;3.53;;;5.10;99.90;;;;;;5014386;28;20025;-81
2022/03/27 01:54:05;;;;;;;6.78;3.88;;;5.20;99.90;;;;;;5014287;28;20033;-81
2022/03/27 01:56:31;;;;;;;11.10;3.85;;;5.20;99.90;;;;;;5014430;28;20433;-81
2022/03/27 01:58:57;;;;;;;10.63;3.92;;;5.20;99.90;;;;;;5013000;28;20026;-83
2022/03/27 02:01:23;;;;;;;7.75;3.80;;;5.30;99.90;;;;;;5014146;28;20024;-83
2022/03/27 02:03:50;;;;;;;7.20;4.03;;;5.20;99.90;;;;;;5014288;28;20095;-83
2022/03/27 02:06:16;;;;;;;8.80;3.75;;;5.10;99.90;;;;;;5014126;28;20547;-83
2022/03/27 02:08:43;;;;;;;10.48;4.55;;;5.10;99.90;;;;;;5014137;28;20026;-84
2022/03/27 02:11:09;;;;;;;12.05;5.10;;;5.10;99.90;;;;;;5012910;28;20152;-83
2022/03/27 02:13:35;;;;;;;9.77;4.97;;;5.10;99.90;;;;;;5014160;28;20503;-83
2022/03/27 02:16:03;;;;;;;10.00;4.35;;;5.00;99.90;;;;;;5013977;28;20033;-83
2022/03/27 02:18:29;;;;;;;8.55;4.32;;;5.10;99.90;;;;;;5014372;28;20029;-83
2022/03/27 02:20:56;;;;;;;8.05;4.32;;;5.10;99.90;;;;;;5014026;28;20498;-83
2022/03/27 02:23:23;;;;;;;8.07;4.43;;;5.20;99.90;;;;;;5013124;28;20029;-83
2022/03/27 02:29:19;;;;;;;8.68;4.07;;;5.20;99.90;;;;;;5013831;28;20029;-83
2022/03/27 02:35:18;;;;;;;6.38;3.65;;;5.30;99.90;;;;;;5008704;28;20025;-83
2022/03/27 02:37:44;;;;;;;14.02;4.53;;;5.10;99.90;;;;;;5013884;28;20025;-83
2022/03/27 02:40:10;;;;;;;8.45;4.53;;;5.10;99.90;;;;;;5013662;28;20022;-83
2022/03/27 02:42:36;;;;;;;9.38;4.57;;;5.20;99.90;;;;;;5013654;28;20093;-83
2022/03/27 02:45:01;;;;;;;10.10;4.13;;;5.20;99.90;;;;;;5013511;28;20413;-84
2022/03/27 02:47:27;;;;;;;8.60;4.45;;;5.20;99.90;;;;;;5017078;28;20057;-83
2022/03/27 02:49:52;;;;;;;9.02;4.13;;;5.20;99.90;;;;;;5017984;28;20030;-83
2022/03/27 02:52:18;;;;;;;11.20;5.20;;;5.30;99.90;;;;;;5017600;28;20038;-84
2022/03/27 02:54:44;;;;;;;8.00;3.85;;;5.40;99.90;;;;;;5017366;28;20038;-83
2022/03/27 02:57:10;;;;;;;9.93;4.20;;;5.50;99.90;;;;;;5017562;28;20096;-83
2022/03/27 02:59:36;;;;;;;10.02;4.30;;;5.50;99.90;;;;;;5017490;28;20114;-83
2022/03/27 03:02:03;;;;;;;14.02;4.55;;;5.60;99.90;;;;;;5016295;28;20805;-83
2022/03/27 03:04:30;;;;;;;12.27;4.55;;;5.60;99.90;;;;;;5018150;28;20021;-83
2022/03/27 03:06:56;;;;;;;9.90;3.83;;;5.70;99.90;;;;;;5017403;28;20105;-83
2022/03/27 03:09:22;;;;;;;9.45;4.20;;;5.80;99.90;;;;;;5030925;28;20055;-84
2022/03/27 03:11:49;;;;;;;7.38;3.45;;;5.80;99.90;;;;;;5037475;28;20030;-84
2022/03/27 03:14:15;;;;;;;7.88;4.03;;;5.80;99.90;;;;;;5038035;28;20013;-83
2022/03/27 03:16:41;;;;;;;7.45;3.65;;;5.80;99.90;;;;;;5037489;28;20163;-83
2022/03/27 03:19:06;;;;;;;10.80;4.13;;;5.80;99.90;;;;;;5035890;28;20495;-83
2022/03/27 03:21:32;;;;;;;7.15;3.28;;;5.90;99.90;;;;;;5035695;28;20195;-84
2022/03/27 03:23:57;;;;;;;8.20;4.30;;;5.90;99.90;;;;;;5028052;28;20030;-84
2022/03/27 03:26:23;;;;;;;10.75;4.47;;;5.90;99.90;;;;;;5016824;28;20409;-84
2022/03/27 03:28:49;;;;;;;11.15;4.20;;;6.00;99.90;;;;;;5017083;28;20030;-84
2022/03/27 03:31:15;;;;;;;13.13;5.45;;;6.00;99.90;;;;;;5016912;28;20080;-83
2022/03/27 03:33:41;;;;;;;10.60;4.82;;;6.10;99.90;;;;;;5016963;28;20508;-84
2022/03/27 03:36:07;;;;;;;11.70;5.22;;;6.00;99.90;;;;;;5016804;28;20029;-84
2022/03/27 03:38:33;;;;;;;17.77;5.75;;;6.00;99.90;;;;;;5017043;28;20021;-84
2022/03/27 03:40:59;;;;;;;14.90;4.45;;;6.00;99.90;;;;;;5016757;28;20386;-84
2022/03/27 03:43:25;;;;;;;14.70;5.20;;;6.00;99.90;;;;;;5016658;28;20022;-84
2022/03/27 03:45:50;;;;;;;12.80;5.47;;;5.90;99.90;;;;;;5016298;28;20121;-84
2022/03/27 03:48:16;;;;;;;19.42;6.18;;;6.00;99.90;;;;;;5016487;28;20034;-84
2022/03/27 03:50:42;;;;;;;17.08;5.05;;;5.90;99.90;;;;;;5016441;28;20033;-84
2022/03/27 03:53:07;;;;;;;16.33;4.82;;;6.00;99.90;;;;;;5016423;28;20068;-84
2022/03/27 03:55:34;;;;;;;12.13;5.05;;;5.90;99.90;;;;;;5016488;28;20022;-84
2022/03/27 03:58:00;;;;;;;13.82;6.30;;;6.00;99.90;;;;;;5016633;28;20026;-84
2022/03/27 04:00:26;;;;;;;18.35;5.20;;;5.90;99.90;;;;;;5016364;28;20057;-84
2022/03/27 04:02:52;;;;;;;15.60;4.82;;;5.90;99.90;;;;;;5016389;28;20026;-84
2022/03/27 04:05:17;;;;;;;14.35;5.18;;;5.90;99.90;;;;;;5016236;28;20022;-84
2022/03/27 04:07:43;;;;;;;12.25;5.47;;;5.80;99.90;;;;;;5016098;28;20393;-84
2022/03/27 04:10:09;;;;;;;14.38;5.15;;;5.70;99.90;;;;;;5016212;28;20026;-84
2022/03/27 04:12:35;;;;;;;16.08;7.05;;;5.50;99.90;;;;;;5018499;28;20028;-83
2022/03/27 04:15:00;;;;;;;22.27;6.18;;;5.40;99.90;;;;;;5034591;28;20116;-83
2022/03/27 04:17:26;;;;;;;16.60;5.07;;;5.30;99.90;;;;;;5035774;28;20021;-83
2022/03/27 04:19:52;;;;;;;13.27;5.13;;;5.30;99.90;;;;;;5035408;28;20029;-83
2022/03/27 04:22:17;;;;;;;17.98;5.68;;;5.20;99.90;;;;;;5035777;28;20029;-84
2022/03/27 04:24:44;;;;;;;15.05;5.03;;;5.20;99.90;;;;;;5035656;28;20056;-83
2022/03/27 04:27:09;;;;;;;17.15;5.22;;;5.10;99.90;;;;;;5035869;28;20029;-83
2022/03/27 04:29:35;;;;;;;11.48;4.65;;;5.00;99.90;;;;;;5035878;28;20052;-84
2022/03/27 04:32:01;;;;;;;16.40;4.93;;;4.90;99.90;;;;;;5023821;28;20065;-84
2022/03/27 04:34:26;;;;;;;13.23;4.68;;;4.90;99.90;;;;;;5015729;28;20053;-84
2022/03/27 04:36:53;;;;;;;15.75;4.68;;;4.90;99.90;;;;;;5015682;28;20018;-83
2022/03/27 04:39:19;;;;;;;18.08;5.47;;;4.90;99.90;;;;;;5030733;28;20144;-83
2022/03/27 04:41:46;;;;;;;21.58;6.15;;;4.80;99.90;;;;;;5028113;28;20524;-83
2022/03/27 04:44:12;;;;;;;14.23;4.30;;;4.70;99.90;;;;;;5015575;28;20018;-83
2022/03/27 04:46:38;;;;;;;16.75;4.07;;;4.80;99.90;;;;;;5015212;28;20779;-83
2022/03/27 04:49:03;;;;;;;10.43;4.28;;;4.80;99.90;;;;;;5015698;28;20030;-82
2022/03/27 04:51:29;;;;;;;16.25;4.65;;;4.80;99.90;;;;;;5015455;28;20030;-83
2022/03/27 04:53:55;;;;;;;15.18;4.50;;;4.80;99.90;;;;;;4997977;28;20026;-83
2022/03/27 04:56:20;;;;;;;19.15;4.93;;;4.80;99.90;;;;;;5015221;28;20394;-82
2022/03/27 04:58:46;;;;;;;13.82;5.00;;;4.60;99.90;;;;;;5033512;28;20024;-82
2022/03/27 05:01:14;;;;;;;15.20;4.20;;;4.50;99.90;;;;;;5022274;28;20040;-82
2022/03/27 05:03:40;;;;;;;16.60;5.20;;;4.40;99.90;;;;;;5015490;28;20025;-83
2022/03/27 05:06:30;;;;;;;15.68;4.35;;;4.40;99.90;;;;;;5014964;28;20440;-82
2022/03/27 05:08:59;;;;;;;14.20;4.93;;;4.30;99.90;;;;;;5013490;28;20025;-83
2022/03/27 05:11:28;;;;;;;17.73;4.82;;;4.10;99.90;;;;;;5010153;28;20070;-83
2022/03/27 05:13:57;;;;;;;11.55;4.15;;;4.00;99.90;;;;;;5013390;28;20049;-82
2022/03/27 05:16:23;;;;;;;10.80;4.05;;;4.00;99.90;;;;;;5014733;28;20029;-82
2022/03/27 05:18:49;;;;;;;13.02;3.55;;;4.00;99.90;;;;;;5014685;28;20030;-82
2022/03/27 05:21:15;;;;;;;9.15;4.20;;;3.90;99.90;;;;;;5015088;28;20084;-82
2022/03/27 05:23:41;;;;;;;11.90;3.70;;;3.80;99.90;;;;;;5015134;28;20054;-83
2022/03/27 05:26:08;;;;;;;15.00;3.75;;;3.70;99.90;;;;;;5014668;28;20038;-82
2022/03/27 05:28:34;;;;;;;16.75;3.97;;;3.70;99.90;;;;;;5014824;28;20030;-82
2022/03/27 05:31:08;;;;;;;10.95;3.50;;;3.70;99.90;;;;;;5015233;28;20720;-82
2022/03/27 05:33:38;;;;;;;14.32;3.55;;;3.70;99.90;;;;;;5014801;28;20022;-82
2022/03/27 05:36:05;;;;;;;13.57;3.30;;;3.70;99.90;;;;;;5014718;28;20025;-82
2022/03/27 05:38:31;;;;;;;10.90;2.80;;;3.70;99.90;;;;;;5018928;28;20796;-82
2022/03/27 05:40:56;;;;;;;11.73;3.88;;;3.80;99.90;;;;;;5016383;28;20489;-82
2022/03/27 05:43:22;;;;;;;13.40;3.92;;;3.80;99.90;;;;;;4994723;28;20075;-82
2022/03/27 05:45:47;;;;;;;18.95;3.75;;;3.90;99.90;;;;;;4994510;28;20414;-82
2022/03/27 05:48:14;;;;;;;16.98;3.75;;;3.90;99.90;;;;;;5014222;28;20053;-82
2022/03/27 05:50:39;;;;;;;16.55;4.28;;;4.10;99.90;;;;;;5014538;28;20022;-82
2022/03/27 05:53:05;;;;;;;16.63;4.20;;;4.20;99.90;;;;;;5014432;28;20156;-81
2022/03/27 05:55:31;;;;;;;25.83;3.70;;;4.20;99.90;;;;;;5014827;28;20541;-82
2022/03/27 05:57:56;;;;;;;25.92;4.55;;;4.30;99.90;;;;;;5013745;28;20026;-81
2022/03/27 06:00:23;;;;;;;23.65;4.40;;;4.50;99.90;;;;;;5015563;28;20089;-81
2022/03/27 06:02:51;;;;;;;24.80;4.22;;;4.60;99.90;;;;;;5028609;28;20075;-81
2022/03/27 06:05:22;;;;;;;18.50;4.28;;;4.70;99.90;;;;;;5016723;28;20018;-80
2022/03/27 06:07:50;;;;;;;22.40;4.75;;;4.80;99.90;;;;;;5022775;28;20124;-80
2022/03/27 06:10:19;;;;;;;21.58;3.92;;;5.00;99.90;;;;;;5022606;28;20429;-81
2022/03/27 06:12:45;;;;;;;12.73;3.45;;;5.10;99.90;;;;;;5022559;28;20026;-81
2022/03/27 06:15:12;;;;;;;17.30;3.83;;;5.20;99.90;;;;;;5029609;28;20385;-81
2022/03/27 06:17:39;;;;;;;15.40;3.75;;;5.30;99.90;;;;;;5031119;28;20025;-81
2022/03/27 06:20:06;;;;;;;17.95;4.88;;;5.40;99.90;;;;;;5032072;28;20465;-81
2022/03/27 06:22:32;;;;;;;23.63;5.07;;;5.50;99.90;;;;;;5019714;28;20045;-81
2022/03/27 06:24:58;;;;;;;27.58;5.57;;;5.50;99.90;;;;;;5016054;28;20029;-82
2022/03/27 06:27:23;;;;;;;19.65;4.80;;;5.50;99.90;;;;;;5022114;28;20414;-81
2022/03/27 06:29:49;;;;;;;22.13;6.28;;;5.60;99.90;;;;;;5018429;28;20061;-81
2022/03/27 06:32:15;;;;;;;18.13;4.40;;;5.70;99.90;;;;;;5019400;28;20386;-82
2022/03/27 06:34:40;;;;;;;14.00;3.80;;;5.90;99.90;;;;;;5026911;28;20485;-82
2022/03/27 06:37:07;;;;;;;22.13;5.20;;;5.90;99.90;;;;;;5024839;28;20411;-82
2022/03/27 06:39:33;;;;;;;13.90;3.38;;;6.10;99.90;;;;;;5020308;28;20448;-81
2022/03/27 06:41:58;;;;;;;12.45;3.40;;;6.30;99.90;;;;;;5016656;28;20057;-81
2022/03/27 06:44:24;;;;;;;16.23;3.38;;;6.40;99.90;;;;;;5010981;28;20057;-81
2022/03/27 06:46:49;;;;;;;17.73;4.05;;;6.60;99.90;;;;;;5010510;28;20386;-81
2022/03/27 06:49:15;;;;;;;21.75;4.13;;;6.70;99.90;;;;;;5009275;28;20030;-82
2022/03/27 06:51:40;;;;;;;18.35;3.60;;;6.90;99.90;;;;;;5008365;28;20018;-81
2022/03/27 06:54:06;;;;;;;21.13;4.05;;;7.00;99.90;;;;;;5006365;28;20311;-81
2022/03/27 06:56:32;;;;;;;16.98;3.67;;;7.20;99.90;;;;;;5006559;28;20022;-82
2022/03/27 06:58:58;;;;;;;18.60;4.28;;;7.40;99.90;;;;;;5008187;28;20152;-82
2022/03/27 07:04:27;;;;;;;17.08;3.38;;;7.60;99.90;;;;;;5004061;28;20432;-81
2022/03/27 07:06:53;;;;;;;22.77;4.30;;;8.00;99.90;;;;;;5004592;28;20462;-82
2022/03/27 07:09:18;;;;;;;25.35;4.85;;;11.30;29.50;;;;;;5007046;28;20128;-82
2022/03/27 07:11:46;;;;;;;12.25;3.17;;;15.00;99.90;;;;;;5011911;28;20485;-82
2022/03/27 07:14:12;;;;;;;13.32;3.30;;;16.90;99.90;;;;;;5011534;28;20430;-82
2022/03/27 07:16:39;;;;;;;8.32;3.38;;;17.70;99.90;;;;;;5007707;28;20030;-82
2022/03/27 07:19:04;;;;;;;19.98;4.80;;;17.10;99.90;;;;;;5007622;28;20017;-82
2022/03/27 07:21:30;;;;;;;16.08;3.42;;;18.60;99.90;;;;;;5007805;28;20072;-82
2022/03/27 07:23:55;;;;;;;20.27;4.15;;;19.20;99.90;;;;;;5009794;28;20025;-81
2022/03/27 07:26:22;;;;;;;20.92;3.80;;;20.20;99.90;;;;;;5011205;28;20014;-81
2022/03/27 07:28:48;;;;;;;19.05;3.70;;;21.70;99.90;;;;;;5009004;28;20026;-83
2022/03/27 07:31:13;;;;;;;26.50;4.05;;;21.50;99.90;;;;;;5009654;28;20026;-81
2022/03/27 07:33:39;;;;;;;12.52;2.90;;;21.70;99.90;;;;;;5029593;28;20101;-83
2022/03/27 07:36:05;;;;;;;21.88;4.35;;;22.20;99.90;;;;;;5020363;28;20503;-83
2022/03/27 07:38:31;;;;;;;13.98;3.08;;;22.00;99.90;;;;;;5018877;28;20389;-83
2022/03/27 07:40:57;;;;;;;18.58;3.20;;;22.40;99.90;;;;;;5032367;28;20026;-83
2022/03/27 07:43:23;;;;;;;14.82;3.25;;;21.00;99.90;;;;;;5024547;28;20026;-83
2022/03/27 07:45:49;;;;;;;24.73;3.20;;;20.80;99.90;;;;;;5013770;28;20050;-83
2022/03/27 07:48:14;;;;;;;15.77;2.95;;;19.30;99.90;;;;;;5017939;28;20069;-82
2022/03/27 07:50:41;;;;;;;18.45;3.60;;;19.40;99.90;;;;;;5017666;28;20385;-83
2022/03/27 07:53:06;;;;;;;19.38;3.78;;;20.20;99.90;;;;;;5033067;28;20487;-83
2022/03/27 07:55:32;;;;;;;19.25;2.83;;;18.20;99.90;;;;;;5019042;28;20176;-83
2022/03/27 07:57:59;;;;;;;21.48;4.32;;;17.90;99.90;;;;;;5015651;28;20397;-83
2022/03/27 08:00:27;;;;;;;27.70;5.68;;;19.70;99.90;;;;;;5023390;28;20470;-84
2022/03/27 08:02:53;;;;;;;13.80;3.10;;;17.50;99.90;;;;;;5024845;28;20053;-84
2022/03/27 08:05:19;;;;;;;19.30;3.35;;;16.80;99.90;;;;;;5022099;28;20092;-84
2022/03/27 08:07:45;;;;;;;21.70;4.20;;;18.00;99.90;;;;;;5031189;28;20056;-84
2022/03/27 08:10:13;;;;;;;15.13;3.03;;;18.80;99.90;;;;;;5036271;28;20368;-83
2022/03/27 08:12:38;;;;;;;16.75;3.40;;;21.00;99.90;;;;;;5036243;28;20381;-84
2022/03/27 08:15:05;;;;;;;19.90;3.50;;;22.60;99.90;;;;;;5034533;28;20032;-84
2022/03/27 08:17:31;;;;;;;25.13;4.43;;;24.30;99.90;;;;;;5024409;28;20488;-83
2022/03/27 08:19:56;;;;;;;19.58;3.70;;;24.60;99.90;;;;;;5024464;28;20033;-83
2022/03/27 08:22:24;;;;;;;15.30;3.42;;;24.90;99.90;;;;;;5032462;28;20029;-83
2022/03/27 08:24:50;;;;;;;18.80;3.90;;;25.20;99.90;;;;;;5032701;28;20051;-83
2022/03/27 08:27:15;;;;;;;18.55;5.00;;;24.30;99.90;;;;;;5024233;28;20132;-84
2022/03/27 08:29:42;;;;;;;13.38;3.47;;;23.60;99.90;;;;;;5024025;28;20541;-84
2022/03/27 08:32:15;;;;;;;23.33;4.00;;;24.70;99.90;;;;;;5016750;28;20032;-84
2022/03/27 08:34:44;;;;;;;17.65;3.65;;;26.20;99.90;;;;;;5026407;28;20034;-83
2022/03/27 08:37:13;;;;;;;20.10;3.28;;;24.60;99.90;;;;;;5013216;28;20676;-84
2022/03/27 08:39:39;;;;;;;18.38;4.38;;;24.50;99.90;;;;;;5013201;28;20117;-84
2022/03/27 08:42:05;;;;;;;22.35;4.22;;;23.80;99.90;;;;;;5020820;28;20495;-84
2022/03/27 08:44:34;;;;;;;19.35;3.40;;;24.50;99.90;;;;;;5012333;28;20029;-84
2022/03/27 08:47:03;;;;;;;19.73;4.05;;;25.60;99.90;;;;;;5028672;28;20029;-83
2022/03/27 08:49:52;;;;;;;19.25;4.35;;;25.90;99.90;;;;;;5020762;28;20033;-83
2022/03/27 08:52:18;;;;;;;17.73;4.47;;;24.70;99.90;;;;;;5023124;28;20033;-83
2022/03/27 08:55:05;;;;;;;20.27;3.83;;;22.70;99.90;;;;;;5024347;28;20307;-84
2022/03/27 08:57:54;;;;;;;16.85;3.63;;;25.20;99.90;;;;;;5004222;28;20021;-84
2022/03/27 09:00:21;;;;;;;12.73;2.72;;;25.30;99.90;;;;;;5020484;28;20036;-83
2022/03/27 09:02:47;;;;;;;20.95;4.05;;;24.80;99.90;;;;;;5012876;28;20504;-83
2022/03/27 09:05:13;;;;;;;12.27;2.78;;;25.60;99.90;;;;;;5022050;28;20030;-83
2022/03/27 09:07:38;;;;;;;17.17;3.90;;;25.70;99.90;;;;;;5013889;28;20030;-83
2022/03/27 09:10:08;;;;;;;9.25;2.63;;;24.50;99.90;;;;;;5020407;28;20033;-83
2022/03/27 09:12:34;;;;;;;13.33;3.17;;;24.80;99.90;;;;;;5012820;28;20164;-83
2022/03/27 09:15:01;;;;;;;12.57;2.90;;;24.10;99.90;;;;;;5019930;28;20021;-83
2022/03/27 09:17:26;;;;;;;11.30;2.78;;;24.40;99.90;;;;;;5023767;28;20030;-83
2022/03/27 09:19:52;;;;;;;18.70;3.53;;;23.40;99.90;;;;;;5017695;28;20030;-83
2022/03/27 09:22:19;;;;;;;14.50;2.92;;;24.00;99.90;;;;;;5021760;28;20036;-83
2022/03/27 09:24:56;;;;;;;14.68;3.47;;;24.00;99.90;;;;;;5018548;28;20030;-83
2022/03/27 09:27:36;;;;;;;16.27;3.05;;;24.60;99.90;;;;;;5020880;28;20099;-84
2022/03/27 09:30:07;;;;;;;;;;;26.10;99.90;;;;;;5028569;28;20124;-84
2022/03/27 09:32:35;;;;;;;14.70;2.65;;;25.70;99.90;;;;;;5010860;28;19913;-83
2022/03/27 09:35:15;;;;;;;13.45;2.75;;;25.90;99.90;;;;;;5013524;28;20034;-84
2022/03/27 09:37:42;;;;;;;;;;;26.60;99.90;;;;;;5014891;28;20373;-83
2022/03/27 09:40:12;;;;;;;14.20;2.70;;;26.10;99.90;;;;;;5013049;28;19969;-84
2022/03/27 09:42:39;;;;;;;;;;;24.50;99.90;;;;;;5026718;28;20075;-85
2022/03/27 09:45:23;;;;;;;9.38;2.00;;;25.90;99.90;;;;;;5033996;28;19960;-85
2022/03/27 09:47:50;;;;;;;10.10;2.42;;;25.80;99.90;;;;;;5028095;28;20124;-86
2022/03/27 09:50:33;;;;;;;10.40;3.03;;;25.70;99.90;;;;;;5014717;28;20033;-86
2022/03/27 09:53:18;;;;;;;14.35;3.08;;;25.90;99.90;;;;;;5009166;28;20044;-86
2022/03/27 09:55:44;;;;;;;20.88;3.72;;;25.50;99.90;;;;;;5013277;28;20469;-86
2022/03/27 09:58:12;;;;;;;12.40;2.40;;;25.80;99.90;;;;;;5013050;28;20037;-86
2022/03/27 10:00:37;;;;;;;13.80;2.30;;;26.10;99.90;;;;;;5004357;28;20028;-86
2022/03/27 10:03:10;;;;;;;17.73;3.20;;;26.60;99.90;;;;;;5014287;28;20022;-85
2022/03/27 10:05:36;;;;;;;15.73;3.10;;;25.00;99.90;;;;;;5018949;28;20025;-85
2022/03/27 10:08:03;;;;;;;12.10;2.72;;;25.20;99.90;;;;;;5019602;28;20052;-86
2022/03/27 10:10:29;;;;;;;13.55;3.03;;;24.30;99.90;;;;;;5010698;28;20474;-85
2022/03/27 10:12:58;;;;;;;9.77;2.45;;;25.40;99.90;;;;;;5010887;28;20454;-85
2022/03/27 10:15:25;;;;;;;12.45;2.40;;;27.10;99.90;;;;;;5008981;28;20080;-85
2022/03/27 10:18:09;;;;;;;8.75;2.53;;;27.20;99.90;;;;;;5011966;28;20401;-86
2022/03/27 10:20:37;;;;;;;4.80;1.42;;;25.50;99.90;;;;;;5013885;28;20128;-86
2022/03/27 10:23:04;;;;;;;14.85;2.65;;;25.20;99.90;;;;;;5009276;28;20040;-87
2022/03/27 10:25:55;;;;;;;8.00;1.63;;;26.30;99.90;;;;;;5010460;28;20022;-85
2022/03/27 10:28:21;;;;;;;6.82;2.30;;;25.80;99.90;;;;;;5013165;28;20152;-83
2022/03/27 10:30:51;;;;;;;5.65;1.17;;;25.20;99.90;;;;;;5021410;28;20026;-88
2022/03/27 10:33:18;;;;;;;9.32;2.13;;;23.80;99.90;;;;;;4996559;28;20371;-86
2022/03/27 10:36:04;;;;;;;7.35;1.70;;;23.90;99.90;;;;;;5014071;28;20026;-87
2022/03/27 10:38:42;;;;;;;6.45;1.90;;;25.70;99.90;;;;;;5009697;28;20036;-88
2022/03/27 10:41:27;;;;;;;7.60;2.17;;;23.50;99.90;;;;;;5011530;28;20108;-88
2022/03/27 10:44:21;;;;;;;8.02;2.17;;;23.60;99.90;;;;;;5014285;28;20038;-88
2022/03/27 10:47:13;;;;;;;5.13;1.35;;;23.20;99.90;;;;;;5011851;28;20041;-88
2022/03/27 10:49:40;;;;;;;3.58;0.88;;;22.50;99.90;;;;;;5008829;28;20318;-88
2022/03/27 10:52:06;;;;;;;8.15;1.15;;;21.30;99.90;;;;;;5015446;28;20076;-84
2022/03/27 10:54:52;;;;;;;4.78;1.25;;;21.90;99.90;;;;;;5011724;28;20022;-87
2022/03/27 10:57:38;;;;;;;4.25;1.13;;;20.10;99.90;;;;;;5024140;28;20507;-85
2022/03/27 11:00:08;;;;;;;8.68;1.75;;;18.90;99.90;;;;;;5022560;28;20022;-83
2022/03/27 11:02:45;;;;;;;1.23;0.55;;;17.20;99.90;;;;;;5022980;28;20028;-85
2022/03/27 11:05:30;;;;;;;4.22;1.10;;;16.50;99.90;;;;;;5021340;28;20048;-81
2022/03/27 11:08:19;;;;;;;4.97;1.17;;;15.70;99.90;;;;;;5032649;28;20053;-82
2022/03/27 11:10:55;;;;;;;5.07;1.50;;;15.70;99.90;;;;;;5005395;28;20044;-87
2022/03/27 11:13:26;;;;;;;3.30;0.90;;;15.30;99.90;;;;;;5020613;28;20033;-83
2022/03/27 11:16:12;;;;;;;4.22;1.33;;;14.80;99.90;;;;;;5014672;28;20105;-82
2022/03/27 11:18:48;;;;;;;2.78;1.02;;;14.80;99.90;;;;;;5022401;28;20026;-83
2022/03/27 11:21:34;;;;;;;4.82;0.95;;;14.60;99.90;;;;;;5027146;28;20358;-83
2022/03/27 11:24:05;;;;;;;7.63;1.98;;;14.90;99.90;;;;;;5026256;28;20028;-82
2022/03/27 11:26:30;;;;;;;5.43;1.13;;;14.90;99.90;;;;;;5027256;28;20049;-83
2022/03/27 11:29:18;;;;;;;3.65;1.10;;;14.60;99.90;;;;;;5015918;28;20026;-83
2022/03/27 11:31:43;;;;;;;4.18;1.23;;;14.60;99.90;;;;;;5016957;28;20457;-83
2022/03/27 11:34:09;;;;;;;2.08;0.65;;;15.00;99.90;;;;;;5017218;28;20065;-83
2022/03/27 11:36:36;;;;;;;6.70;1.00;;;14.80;99.90;;;;;;5014317;28;20405;-84
2022/03/27 11:39:13;;;;;;;2.67;0.55;;;14.40;99.90;;;;;;5028531;28;20029;-84
2022/03/27 11:41:44;;;;;;;4.28;1.42;;;14.40;99.90;;;;;;5013659;28;20037;-83
2022/03/27 11:47:06;;;;;;;3.38;0.68;;;14.40;99.90;;;;;;5022630;28;20052;-85
2022/03/27 11:49:40;;;;;;;3.10;0.80;;;14.60;99.90;;;;;;5014746;28;20326;-84
2022/03/27 11:52:10;;;;;;;2.65;0.57;;;14.40;99.90;;;;;;5022453;28;20026;-82
2022/03/27 11:54:36;;;;;;;4.40;1.05;;;14.60;99.90;;;;;;5021255;28;20077;-83
2022/03/27 11:57:04;;;;;;;4.28;1.02;;;14.60;99.90;;;;;;5021658;28;20034;-83
2022/03/27 11:59:31;;;;;;;5.10;0.80;;;14.80;99.90;;;;;;5022707;28;20022;-83
2022/03/27 12:02:02;;;;;;;3.38;1.17;;;14.60;99.90;;;;;;5025226;28;20127;-83
2022/03/27 12:04:28;;;;;;;3.97;1.10;;;14.70;99.90;;;;;;5029996;28;20026;-83
2022/03/27 12:06:57;;;;;;;2.42;0.75;;;15.00;99.90;;;;;;5014192;28;20041;-83
2022/03/27 12:09:25;;;;;;;1.30;0.60;;;14.70;99.90;;;;;;5013827;28;20034;-83
2022/03/27 12:12:14;;;;;;;3.90;1.00;;;14.70;99.90;;;;;;5014169;28;20054;-82
2022/03/27 12:14:57;;;;;;;2.67;1.00;;;14.90;99.90;;;;;;5023521;28;20444;-83
2022/03/27 12:17:25;;;;;;;4.53;1.08;;;14.50;99.90;;;;;;5024540;28;20029;-83
2022/03/27 12:20:08;;;;;;;2.92;0.85;;;14.90;99.90;;;;;;5026552;28;20152;-83
2022/03/27 12:22:43;;;;;;;6.43;1.33;;;15.00;99.90;;;;;;5023989;28;20025;-83
2022/03/27 12:25:20;;;;;;;4.53;0.90;;;15.00;99.90;;;;;;5026260;28;20109;-83
2022/03/27 12:30:47;;;;;;;3.47;0.73;;;15.10;99.90;;;;;;5023885;28;20103;-84
2022/03/27 12:33:13;;;;;;;2.17;0.73;;;14.90;99.90;;;;;;5018225;28;20516;-83
2022/03/27 12:35:39;;;;;;;3.50;0.70;;;14.80;99.90;;;;;;5028610;28;20298;-83
2022/03/27 12:38:04;;;;;;;3.05;1.00;;;15.20;99.90;;;;;;5031964;28;20077;-83
2022/03/27 12:40:44;;;;;;;3.75;0.80;;;15.20;99.90;;;;;;5026947;28;20053;-83
2022/03/27 12:43:11;;;;;;;;;;;15.20;99.90;;;;;;5024013;28;20030;-83
2022/03/27 12:45:37;;;;;;;3.33;0.80;;;15.40;99.90;;;;;;5019108;28;19917;-84
2022/03/27 12:48:18;;;;;;;4.65;1.15;;;15.30;99.90;;;;;;5015763;28;20033;-83
2022/03/27 12:50:55;;;;;;;6.32;1.30;;;15.00;99.90;;;;;;5016084;28;20034;-83
2022/03/27 12:53:21;;;;;;;3.08;1.02;;;15.10;99.90;;;;;;5016005;28;20030;-83
2022/03/27 12:56:00;;;;;;;4.05;1.30;;;15.00;99.90;;;;;;5015281;28;20095;-83
2022/03/27 12:58:38;;;;;;;7.35;1.38;;;15.10;99.90;;;;;;5021031;28;20036;-83
2022/03/27 13:01:10;;;;;;;7.75;1.10;;;15.20;99.90;;;;;;5015010;28;20053;-83
2022/03/27 13:03:42;;;;;;;3.05;0.90;;;15.20;99.90;;;;;;5015421;28;20026;-84
2022/03/27 13:06:09;;;;;;;7.00;0.80;;;15.00;99.90;;;;;;5020112;28;20017;-83
2022/03/27 13:08:38;;;;;;;2.13;0.65;;;15.10;99.90;;;;;;5012994;28;20061;-83
2022/03/27 13:11:06;;;;;;;2.33;1.07;;;15.00;99.90;;;;;;5020543;28;20026;-83
2022/03/27 13:13:42;;;;;;;4.43;0.80;;;14.80;99.90;;;;;;5028902;28;20275;-83